createdAt,value
2019-04-10T00:01:23.756Z,46.78
2019-04-10T00:04:28.031Z,46.87
2019-04-10T00:07:31.183Z,46.66
2019-04-10T00:10:34.748Z,46.88
2019-04-10T00:13:36.636Z,46.37
2019-04-10T00:16:40.499Z,46.53
2019-04-10T00:19:43.555Z,46.44
2019-04-10T00:22:46.559Z,46.45
2019-04-10T00:25:48.889Z,46.61
2019-04-10T00:28:51.823Z,46.51
2019-04-10T00:31:54.253Z,46.54
2019-04-10T00:34:56.248Z,46.41
2019-04-10T00:37:58.206Z,46.31
2019-04-10T00:41:00.112Z,46.14
2019-04-10T00:44:02.083Z,46.20
2019-04-10T00:47:04.470Z,46.39
2019-04-10T00:50:06.583Z,45.99
2019-04-10T00:53:08.590Z,45.93
2019-04-10T00:56:10.641Z,46.16
2019-04-10T00:59:12.533Z,45.93
2019-04-10T01:02:14.520Z,45.82
2019-04-10T01:05:19.357Z,45.91
2019-04-10T01:08:21.600Z,46.29
2019-04-10T01:11:23.544Z,46.04
2019-04-10T01:14:25.550Z,46.04
2019-04-10T01:17:28.440Z,46.29
2019-04-10T01:20:31.321Z,45.79
2019-04-10T01:23:33.584Z,45.98
2019-04-10T01:26:35.582Z,45.96
2019-04-10T01:29:37.785Z,45.93
2019-04-10T01:32:39.945Z,45.83
2019-04-10T01:35:42.598Z,45.97
2019-04-10T01:38:46.064Z,45.54
2019-04-10T01:41:48.386Z,45.71
2019-04-10T01:44:51.194Z,45.59
2019-04-10T01:47:53.803Z,45.63
2019-04-10T01:50:55.701Z,45.56
2019-04-10T01:53:58.499Z,45.33
2019-04-10T01:57:00.864Z,45.01
2019-04-10T02:00:05.384Z,45.32
2019-04-10T02:03:07.723Z,45.39
2019-04-10T02:06:09.770Z,45.55
2019-04-10T02:09:12.710Z,45.56
2019-04-10T02:12:15.125Z,45.37
2019-04-10T02:15:17.756Z,45.09
2019-04-10T02:18:19.870Z,45.15
2019-04-10T02:21:21.880Z,45.39
2019-04-10T02:24:25.276Z,44.82
2019-04-10T02:27:27.312Z,44.72
2019-04-10T02:30:30.291Z,44.44
2019-04-10T02:33:33.586Z,44.73
2019-04-10T02:36:36.233Z,44.30
2019-04-10T02:39:45.808Z,44.10
2019-04-10T02:42:43.275Z,44.05
2019-04-10T02:45:49.216Z,44.41
2019-04-10T02:48:51.977Z,44.56
2019-04-10T02:51:54.995Z,44.62
2019-04-10T02:54:57.863Z,44.34
2019-04-10T02:58:00.829Z,43.95
2019-04-10T03:01:03.652Z,43.58
2019-04-10T03:04:05.712Z,43.77
2019-04-10T03:07:09.536Z,43.38
2019-04-10T03:10:21.758Z,43.54
2019-04-10T03:13:17.783Z,43.20
2019-04-10T03:16:20.032Z,43.04
2019-04-10T03:19:21.989Z,42.84
2019-04-10T03:22:26.360Z,42.89
2019-04-10T03:25:28.959Z,42.85
2019-04-10T03:28:32.036Z,43.01
2019-04-10T03:31:34.558Z,43.18
2019-04-10T03:34:40.713Z,43.02
2019-04-10T03:37:40.649Z,43.05
2019-04-10T03:40:43.719Z,43.02
2019-04-10T03:43:46.009Z,43.06
2019-04-10T03:46:48.993Z,43.15
2019-04-10T03:49:51.946Z,43.14
2019-04-10T03:52:54.037Z,43.16
2019-04-10T03:55:56.997Z,43.29
2019-04-10T03:58:59.911Z,43.16
2019-04-10T04:02:03.090Z,43.36
2019-04-10T04:05:06.515Z,43.43
2019-04-10T04:08:09.027Z,43.36
2019-04-10T04:11:11.043Z,43.14
2019-04-10T04:14:12.965Z,43.21
2019-04-10T04:17:15.764Z,43.15
2019-04-10T04:20:19.068Z,43.44
2019-04-10T04:23:21.499Z,43.33
2019-04-10T04:26:23.789Z,43.23
2019-04-10T04:29:26.803Z,43.48
2019-04-10T04:32:29.427Z,43.38
2019-04-10T04:35:31.388Z,43.48
2019-04-10T04:38:34.408Z,43.58
2019-04-10T04:41:36.590Z,43.79
2019-04-10T04:44:39.838Z,44.10
2019-04-10T04:47:41.790Z,44.15
2019-04-10T04:50:44.314Z,44.12
2019-04-10T04:53:46.269Z,43.99
2019-04-10T04:56:48.412Z,44.13
2019-04-10T04:59:50.571Z,44.15
2019-04-10T05:02:53.701Z,44.04
2019-04-10T05:05:56.184Z,44.20
2019-04-10T05:08:59.251Z,44.26
2019-04-10T05:12:01.327Z,44.15
2019-04-10T05:15:05.299Z,44.27
2019-04-10T05:18:07.227Z,43.58
2019-04-10T05:21:09.195Z,43.95
2019-04-10T05:24:12.276Z,44.25
2019-04-10T05:27:14.307Z,44.40
2019-04-10T05:30:16.479Z,44.24
2019-04-10T05:33:18.802Z,44.28
2019-04-10T05:36:21.635Z,44.21
2019-04-10T05:39:24.467Z,44.24
2019-04-10T05:42:28.991Z,44.59
2019-04-10T05:45:31.849Z,44.35
2019-04-10T05:48:34.013Z,44.83
2019-04-10T05:51:35.973Z,44.79
2019-04-10T05:54:37.932Z,44.66
2019-04-10T05:57:40.645Z,44.47
2019-04-10T06:00:43.057Z,44.71
2019-04-10T06:03:45.758Z,44.55
2019-04-10T06:06:48.513Z,44.64
2019-04-10T06:09:57.788Z,44.81
2019-04-10T06:12:55.257Z,44.85
2019-04-10T06:15:57.260Z,44.74
2019-04-10T06:18:59.779Z,44.55
2019-04-10T06:22:02.958Z,44.53
2019-04-10T06:25:07.912Z,44.48
2019-04-10T06:28:09.492Z,44.36
2019-04-10T06:31:12.503Z,44.44
2019-04-10T06:34:18.306Z,44.34
2019-04-10T06:37:18.892Z,44.37
2019-04-10T06:40:24.220Z,44.06
2019-04-10T06:43:25.219Z,43.95
2019-04-10T06:46:28.419Z,44.00
2019-04-10T06:49:31.123Z,44.16
2019-04-10T06:52:34.499Z,43.73
2019-04-10T06:55:36.721Z,43.59
2019-04-10T06:58:38.732Z,43.69
2019-04-10T07:01:49.524Z,43.34
2019-04-10T07:04:52.425Z,43.28
2019-04-10T07:07:54.586Z,43.31
2019-04-10T07:10:59.204Z,43.15
2019-04-10T07:13:57.371Z,43.20
2019-04-10T07:17:05.040Z,42.82
2019-04-10T07:20:05.241Z,43.05
2019-04-10T07:23:07.363Z,42.90
2019-04-10T07:26:10.112Z,42.29
2019-04-10T07:29:15.611Z,42.63
2019-04-10T07:32:16.884Z,42.34
2019-04-10T07:35:20.298Z,42.15
2019-04-10T07:38:23.126Z,42.33
2019-04-10T07:41:27.334Z,42.14
2019-04-10T07:44:29.882Z,42.37
2019-04-10T07:47:31.807Z,42.23
2019-04-10T07:50:34.793Z,42.06
2019-04-10T07:53:37.282Z,41.78
2019-04-10T07:56:39.653Z,41.69
2019-04-10T07:59:41.603Z,41.37
2019-04-10T08:02:43.669Z,41.41
2019-04-10T08:05:46.045Z,41.53
2019-04-10T08:08:49.174Z,41.40
2019-04-10T08:11:51.476Z,41.10
2019-04-10T08:14:54.045Z,41.20
2019-04-10T08:17:56.171Z,41.32
2019-04-10T08:20:59.202Z,41.30
2019-04-10T08:24:02.488Z,41.24
2019-04-10T08:27:05.366Z,40.95
2019-04-10T08:30:10.808Z,41.07
2019-04-10T08:33:12.007Z,40.75
2019-04-10T08:36:17.292Z,40.65
2019-04-10T08:39:35.313Z,40.33
2019-04-10T08:42:26.649Z,40.13
2019-04-10T08:45:40.352Z,40.47
2019-04-10T08:48:33.154Z,40.13
2019-04-10T08:51:35.357Z,40.31
2019-04-10T08:54:38.381Z,39.78
2019-04-10T08:57:41.656Z,39.47
2019-04-10T09:00:44.861Z,39.43
2019-04-10T09:03:46.927Z,39.70
2019-04-10T09:06:51.993Z,39.61
2019-04-10T09:09:54.192Z,39.63
2019-04-10T09:12:57.863Z,39.17
2019-04-10T09:16:00.565Z,39.20
2019-04-10T09:19:03.495Z,39.32
2019-04-10T09:22:05.987Z,39.31
2019-04-10T09:25:09.133Z,39.26
2019-04-10T09:28:11.665Z,39.03
2019-04-10T09:31:13.941Z,39.41
2019-04-10T09:34:16.005Z,39.33
2019-04-10T09:37:18.065Z,38.94
2019-04-10T09:40:20.446Z,38.91
2019-04-10T09:43:23.132Z,38.86
2019-04-10T09:46:25.315Z,38.71
2019-04-10T09:49:35.656Z,37.82
2019-04-10T09:52:32.077Z,38.00
2019-04-10T09:55:34.214Z,38.14
2019-04-10T09:58:36.364Z,37.82
2019-04-10T10:01:38.498Z,37.74
2019-04-10T10:04:41.691Z,37.27
2019-04-10T10:07:43.840Z,37.03
2019-04-10T10:10:47.085Z,36.72
2019-04-10T10:13:50.169Z,36.62
2019-04-10T10:16:52.607Z,36.88
2019-04-10T10:19:55.339Z,36.69
2019-04-10T10:22:57.806Z,36.39
2019-04-10T10:25:59.815Z,35.92
2019-04-10T10:29:02.705Z,35.71
2019-04-10T10:32:04.754Z,35.37
2019-04-10T10:35:07.173Z,35.49
2019-04-10T10:38:10.578Z,35.52
2019-04-10T10:41:13.030Z,35.74
2019-04-10T10:44:15.180Z,35.69
2019-04-10T10:47:17.279Z,35.70
2019-04-10T10:50:19.334Z,35.23
2019-04-10T10:53:24.048Z,34.50
2019-04-10T10:56:26.562Z,34.80
2019-04-10T10:59:29.416Z,34.97
2019-04-10T11:02:31.688Z,34.94
2019-04-10T11:05:35.127Z,34.49
2019-04-10T11:08:37.358Z,33.60
2019-04-10T11:11:40.691Z,34.03
2019-04-10T11:14:43.727Z,34.13
2019-04-10T11:17:46.107Z,33.94
2019-04-10T11:20:48.449Z,33.73
2019-04-10T11:23:50.888Z,33.63
2019-04-10T11:26:54.039Z,33.71
2019-04-10T11:29:57.551Z,34.07
2019-04-10T11:33:00.119Z,33.66
2019-04-10T11:36:03.683Z,34.08
2019-04-10T11:42:12.279Z,33.39
2019-04-10T11:45:17.079Z,33.56
2019-04-10T11:48:20.103Z,33.67
2019-04-10T11:51:23.506Z,33.50
2019-04-10T11:54:28.571Z,33.32
2019-04-10T12:00:45.363Z,33.87
2019-04-10T12:03:44.186Z,34.05
2019-04-10T12:06:47.861Z,34.34
2019-04-10T12:12:52.462Z,34.17
2019-04-10T12:15:54.678Z,34.52
2019-04-10T12:18:57.318Z,35.21
2019-04-10T12:21:59.411Z,34.93
2019-04-10T12:25:01.299Z,34.84
2019-04-10T12:28:03.501Z,35.08
2019-04-10T12:31:06.022Z,34.97
2019-04-10T12:34:08.844Z,35.10
2019-04-10T12:37:11.256Z,35.12
2019-04-10T12:40:13.961Z,35.23
2019-04-10T12:43:16.739Z,34.94
2019-04-10T12:46:19.166Z,34.78
2019-04-10T12:49:21.379Z,34.72
2019-04-10T12:52:23.316Z,34.81
2019-04-10T12:55:26.265Z,34.59
2019-04-10T12:58:28.881Z,34.69
2019-04-10T13:01:32.778Z,34.66
2019-04-10T13:04:35.062Z,34.38
2019-04-10T13:07:37.958Z,34.43
2019-04-10T13:10:40.292Z,34.84
2019-04-10T13:13:42.336Z,34.64
2019-04-10T13:16:44.707Z,35.09
2019-04-10T13:19:46.617Z,34.46
2019-04-10T13:22:48.626Z,34.04
2019-04-10T13:25:58.281Z,34.43
2019-04-10T13:28:56.064Z,35.17
2019-04-10T13:31:59.289Z,34.89
2019-04-10T13:35:03.981Z,34.84
2019-04-10T13:38:06.739Z,34.96
2019-04-10T13:41:10.230Z,35.25
2019-04-10T13:44:12.732Z,34.82
2019-04-10T13:47:15.392Z,35.20
2019-04-10T13:50:18.952Z,35.20
2019-04-10T13:53:21.704Z,35.12
2019-04-10T13:56:25.270Z,35.55
2019-04-10T13:59:27.428Z,35.30
2019-04-10T14:02:34.324Z,35.28
2019-04-10T14:05:36.941Z,35.67
2019-04-10T14:08:58.710Z,35.25
2019-04-10T14:11:43.671Z,35.70
2019-04-10T14:14:45.826Z,35.57
2019-04-10T14:17:48.119Z,35.81
2019-04-10T14:20:51.249Z,36.00
2019-04-10T14:23:53.719Z,36.35
2019-04-10T14:27:03.649Z,36.19
2019-04-10T14:30:09.363Z,36.29
2019-04-10T14:33:11.469Z,36.38
2019-04-10T14:36:13.881Z,36.50
2019-04-10T14:39:19.396Z,36.58
2019-04-10T14:42:20.324Z,36.67
2019-04-10T14:45:23.536Z,36.81
2019-04-10T14:48:25.619Z,36.68
2019-04-10T14:51:28.331Z,36.56
2019-04-10T14:54:30.450Z,36.81
2019-04-10T14:57:32.470Z,36.77
2019-04-10T15:00:46.651Z,36.96
2019-04-10T15:03:48.910Z,37.35
2019-04-10T15:06:51.770Z,37.11
2019-04-10T15:09:54.835Z,37.19
2019-04-10T15:13:07.373Z,37.47
2019-04-10T15:16:00.929Z,37.30
2019-04-10T15:19:04.538Z,37.33
2019-04-10T15:22:07.758Z,37.56
2019-04-10T15:25:10.857Z,37.39
2019-04-10T15:28:16.007Z,37.66
2019-04-10T15:31:18.105Z,37.43
2019-04-10T15:34:22.475Z,37.48
2019-04-10T15:37:24.916Z,37.48
2019-04-10T15:40:30.399Z,37.67
2019-04-10T15:43:35.041Z,37.91
2019-04-10T15:46:37.287Z,37.81
2019-04-10T15:49:40.871Z,38.10
2019-04-10T15:52:43.450Z,38.11
2019-04-10T15:55:45.474Z,37.76
2019-04-10T15:58:49.905Z,37.82
2019-04-10T16:01:53.202Z,37.79
2019-04-10T16:04:55.395Z,38.13
2019-04-10T16:07:57.296Z,37.98
2019-04-10T16:11:01.572Z,38.02
2019-04-10T16:14:16.891Z,37.99
2019-04-10T16:17:22.875Z,38.13
2019-04-10T16:20:31.565Z,38.12
2019-04-10T16:23:52.337Z,38.56
2019-04-10T16:26:54.300Z,38.69
2019-04-10T16:29:56.628Z,38.58
2019-04-10T16:32:59.058Z,38.22
2019-04-10T16:36:01.088Z,38.60
2019-04-10T16:39:06.529Z,38.52
2019-04-10T16:42:12.648Z,38.49
2019-04-10T16:45:18.863Z,38.61
2019-04-10T16:48:24.637Z,38.68
2019-04-10T16:51:28.123Z,38.32
2019-04-10T16:54:31.801Z,38.70
2019-04-10T16:57:34.715Z,38.78
2019-04-10T17:00:37.727Z,38.78
2019-04-10T17:03:40.182Z,38.79
2019-04-10T17:06:42.189Z,38.73
2019-04-10T17:09:45.470Z,38.81
2019-04-10T17:12:48.235Z,38.96
2019-04-10T17:15:53.512Z,39.07
2019-04-10T17:18:55.556Z,38.92
2019-04-10T17:21:58.787Z,38.78
2019-04-10T17:25:02.082Z,38.88
2019-04-10T17:28:05.949Z,39.05
2019-04-10T17:31:09.191Z,39.02
2019-04-10T17:34:11.911Z,38.97
2019-04-10T17:37:15.820Z,38.96
2019-04-10T17:40:30.038Z,39.21
2019-04-10T17:43:23.376Z,39.07
2019-04-10T17:46:26.995Z,39.08
2019-04-10T17:49:29.914Z,39.24
2019-04-10T17:52:34.718Z,39.29
2019-04-10T17:55:35.922Z,39.29
2019-04-10T17:58:43.425Z,39.30
2019-04-10T18:01:47.283Z,39.26
2019-04-10T18:04:50.394Z,39.39
2019-04-10T18:07:52.477Z,39.62
2019-04-10T18:10:57.282Z,39.71
2019-04-10T18:14:02.750Z,39.88
2019-04-10T18:17:09.009Z,39.89
2019-04-10T18:20:12.273Z,39.96
2019-04-10T18:23:17.496Z,39.80
2019-04-10T18:26:21.507Z,40.02
2019-04-10T18:29:23.605Z,39.89
2019-04-10T18:32:25.583Z,40.14
2019-04-10T18:35:27.622Z,40.07
2019-04-10T18:38:33.309Z,40.09
2019-04-10T18:41:36.070Z,39.93
2019-04-10T18:44:39.965Z,39.98
2019-04-10T18:47:44.059Z,40.08
2019-04-10T18:50:48.087Z,40.15
2019-04-10T18:53:51.857Z,40.23
2019-04-10T18:56:53.832Z,39.96
2019-04-10T18:59:58.596Z,40.00
2019-04-10T19:03:05.531Z,40.03
2019-04-10T19:06:20.517Z,40.10
2019-04-10T19:09:28.085Z,40.26
2019-04-10T19:12:32.763Z,40.17
2019-04-10T19:15:39.922Z,40.10
2019-04-10T19:18:43.799Z,40.22
2019-04-10T19:21:48.424Z,40.31
2019-04-10T19:24:50.810Z,40.32
2019-04-10T19:27:53.002Z,40.46
2019-04-10T19:31:09.635Z,40.51
2019-04-10T19:34:01.016Z,40.54
2019-04-10T19:37:04.078Z,40.68
2019-04-10T19:40:08.980Z,40.77
2019-04-10T19:43:13.815Z,40.84
2019-04-10T19:46:17.583Z,40.53
2019-04-10T19:49:19.984Z,40.68
2019-04-10T19:52:22.449Z,40.68
2019-04-10T19:55:24.681Z,40.85
2019-04-10T19:58:26.717Z,40.62
2019-04-10T20:01:31.255Z,40.64
2019-04-10T20:04:32.579Z,40.68
2019-04-10T20:07:35.266Z,40.67
2019-04-10T20:10:37.458Z,40.72
2019-04-10T20:13:39.417Z,40.70
2019-04-10T20:16:43.767Z,40.77
2019-04-10T20:19:49.060Z,40.63
2019-04-10T20:22:56.033Z,40.87
2019-04-10T20:25:58.850Z,41.12
2019-04-10T20:29:04.619Z,40.97
2019-04-10T20:32:07.857Z,41.32
2019-04-10T20:35:11.829Z,41.07
2019-04-10T20:38:17.544Z,40.96
2019-04-10T20:41:20.410Z,40.98
2019-04-10T20:44:22.859Z,40.86
2019-04-10T20:47:25.307Z,40.73
2019-04-10T20:50:27.947Z,40.62
2019-04-10T20:53:29.851Z,40.64
2019-04-10T20:56:32.983Z,40.58
2019-04-10T20:59:36.977Z,40.56
2019-04-10T21:02:39.036Z,40.38
2019-04-10T21:05:40.954Z,40.63
2019-04-10T21:08:42.858Z,40.51
2019-04-10T21:11:57.997Z,40.66
2019-04-10T21:14:48.658Z,40.73
2019-04-10T21:17:50.829Z,40.75
2019-04-10T21:20:53.709Z,40.35
2019-04-10T21:23:56.497Z,40.56
2019-04-10T21:26:59.061Z,40.37
2019-04-10T21:30:03.821Z,40.72
2019-04-10T21:33:16.493Z,40.55
2019-04-10T21:36:20.578Z,40.57
2019-04-10T21:39:22.647Z,40.62
2019-04-10T21:42:26.533Z,40.77
2019-04-10T21:45:29.658Z,40.65
2019-04-10T21:48:32.990Z,40.74
2019-04-10T21:51:35.176Z,40.61
2019-04-10T21:54:47.160Z,40.91
2019-04-10T21:57:40.940Z,40.57
2019-04-10T22:01:01.381Z,40.74
2019-04-10T22:04:06.332Z,40.65
2019-04-10T22:07:26.048Z,40.68
2019-04-10T22:10:34.214Z,40.71
2019-04-10T22:13:36.547Z,40.75
2019-04-10T22:16:38.466Z,40.85
2019-04-10T22:19:40.994Z,40.89
2019-04-10T22:22:43.026Z,41.09
2019-04-10T22:25:45.874Z,41.08
2019-04-10T22:28:47.939Z,41.21
2019-04-10T22:31:49.851Z,41.27
2019-04-10T22:34:52.788Z,41.39
2019-04-10T22:37:54.953Z,41.27
2019-04-10T22:40:57.983Z,41.24
2019-04-10T22:44:01.201Z,41.49
2019-04-10T22:47:03.529Z,41.38
2019-04-10T22:50:05.686Z,41.58
2019-04-10T22:53:08.888Z,41.64
2019-04-10T22:56:10.998Z,41.81
2019-04-10T22:59:13.602Z,41.94
2019-04-10T23:02:16.472Z,42.00
2019-04-10T23:05:18.665Z,41.71
2019-04-10T23:08:20.534Z,41.90
2019-04-10T23:11:34.804Z,42.17
2019-04-10T23:14:26.942Z,42.27
2019-04-10T23:17:29.595Z,42.37
2019-04-10T23:20:32.037Z,42.12
2019-04-10T23:23:34.934Z,42.13
2019-04-10T23:26:37.506Z,42.10
2019-04-10T23:29:40.210Z,42.28
2019-04-10T23:32:42.297Z,42.25
2019-04-10T23:35:45.372Z,42.53
2019-04-10T23:38:49.989Z,42.49
2019-04-10T23:41:53.427Z,42.49
2019-04-10T23:44:55.430Z,42.47
2019-04-10T23:47:58.236Z,42.25
2019-04-10T23:51:00.883Z,42.49
2019-04-10T23:54:03.129Z,42.60
2019-04-10T23:57:05.222Z,42.47
